sensor_id;sensor_type;location;lat;lon;timestamp;pressure;altitude;pressure_sealevel;temperature;humidity
53689;BME280;39583;54.682;30.662;2023-01-28T05:50:35;100368.88;;;-1.84;100.00
53689;BME280;39583;54.682;30.662;2023-01-28T05:53:10;100366.03;;;-1.59;100.00
53689;BME280;39583;54.682;30.662;2023-01-28T10:24:34;100270.66;;;1.22;100.00
53689;BME280;39583;54.682;30.662;2023-01-28T10:27:02;100282.50;;;1.47;100.00
53689;BME280;39583;54.682;30.662;2023-01-28T10:29:35;100257.50;;;1.40;99.64
53689;BME280;39583;54.682;30.662;2023-01-28T10:34:51;100261.94;;;1.68;98.74
53689;BME280;39583;54.682;30.662;2023-01-28T10:37:18;100256.91;;;1.75;98.60
53689;BME280;39583;54.682;30.662;2023-01-28T10:39:44;100257.44;;;1.78;98.01
53689;BME280;39583;54.682;30.662;2023-01-28T10:42:40;100256.19;;;1.83;97.75
53689;BME280;39583;54.682;30.662;2023-01-28T10:45:17;100245.97;;;1.78;97.23
53689;BME280;39583;54.682;30.662;2023-01-28T10:50:26;100247.50;;;1.81;97.02
53689;BME280;39583;54.682;30.662;2023-01-28T10:53:00;100245.66;;;1.91;97.14
53689;BME280;39583;54.682;30.662;2023-01-28T10:58:23;100240.63;;;1.97;97.13
53689;BME280;39583;54.682;30.662;2023-01-28T11:01:04;100241.88;;;1.93;96.53
53689;BME280;39583;54.682;30.662;2023-01-28T11:03:31;100234.66;;;1.86;96.47
53689;BME280;39583;54.682;30.662;2023-01-28T11:06:00;100237.31;;;1.86;96.64
53689;BME280;39583;54.682;30.662;2023-01-28T11:08:29;100233.00;;;1.75;95.98
53689;BME280;39583;54.682;30.662;2023-01-28T11:10:56;100235.13;;;1.71;96.00
53689;BME280;39583;54.682;30.662;2023-01-28T11:13:27;100232.31;;;1.63;95.99
53689;BME280;39583;54.682;30.662;2023-01-28T11:16:04;100227.31;;;1.51;95.74
53689;BME280;39583;54.682;30.662;2023-01-28T11:18:37;100227.31;;;1.51;95.62
53689;BME280;39583;54.682;30.662;2023-01-28T11:21:06;100226.88;;;1.55;96.21
53689;BME280;39583;54.682;30.662;2023-01-28T11:23:50;100219.19;;;1.62;96.38
53689;BME280;39583;54.682;30.662;2023-01-28T11:26:26;100220.56;;;1.66;96.22
53689;BME280;39583;54.682;30.662;2023-01-28T11:28:54;100213.91;;;1.62;95.92
53689;BME280;39583;54.682;30.662;2023-01-28T11:31:22;100216.69;;;1.60;96.15
53689;BME280;39583;54.682;30.662;2023-01-28T11:33:59;100213.59;;;1.65;96.27
53689;BME280;39583;54.682;30.662;2023-01-28T11:36:28;100208.00;;;1.68;96.20
53689;BME280;39583;54.682;30.662;2023-01-28T11:41:28;100208.81;;;1.78;95.88
53689;BME280;39583;54.682;30.662;2023-01-28T11:43:56;100208.94;;;1.76;96.01
53689;BME280;39583;54.682;30.662;2023-01-28T12:00:04;100189.19;;;1.89;95.59
53689;BME280;39583;54.682;30.662;2023-01-28T12:05:31;100182.13;;;2.07;95.75
53689;BME280;39583;54.682;30.662;2023-01-28T12:08:23;100186.03;;;2.13;95.47
53689;BME280;39583;54.682;30.662;2023-01-28T12:10:58;100178.19;;;2.11;94.83
53689;BME280;39583;54.682;30.662;2023-01-28T12:13:59;100176.28;;;2.03;94.23
53689;BME280;39583;54.682;30.662;2023-01-28T12:16:59;100179.75;;;2.04;94.73
53689;BME280;39583;54.682;30.662;2023-01-28T12:19:48;100177.56;;;1.99;94.20
53689;BME280;39583;54.682;30.662;2023-01-28T12:34:10;100173.56;;;1.86;95.18
53689;BME280;39583;54.682;30.662;2023-01-28T12:37:06;100176.09;;;1.77;94.53
53689;BME280;39583;54.682;30.662;2023-01-28T12:39:45;100170.56;;;1.71;94.78
53689;BME280;39583;54.682;30.662;2023-01-28T12:48:29;100171.59;;;1.51;95.11
53689;BME280;39583;54.682;30.662;2023-01-28T12:50:57;100175.47;;;1.56;95.71
53689;BME280;39583;54.682;30.662;2023-01-28T12:53:37;100168.06;;;1.69;95.94
53689;BME280;39583;54.682;30.662;2023-01-28T12:56:22;100167.84;;;1.81;96.27
53689;BME280;39583;54.682;30.662;2023-01-28T12:59:01;100169.63;;;1.90;95.87
53689;BME280;39583;54.682;30.662;2023-01-28T13:01:39;100167.50;;;1.93;96.29
53689;BME280;39583;54.682;30.662;2023-01-28T13:06:55;100176.53;;;1.83;95.22
53689;BME280;39583;54.682;30.662;2023-01-28T13:09:25;100173.88;;;1.83;95.35
53689;BME280;39583;54.682;30.662;2023-01-28T13:11:53;100163.25;;;1.83;95.54
53689;BME280;39583;54.682;30.662;2023-01-28T13:14:27;100168.56;;;1.83;95.34
53689;BME280;39583;54.682;30.662;2023-01-28T13:16:54;100160.34;;;1.66;94.91
53689;BME280;39583;54.682;30.662;2023-01-28T13:19:24;100165.66;;;1.66;94.60
53689;BME280;39583;54.682;30.662;2023-01-28T13:22:34;100162.50;;;1.53;94.53
53689;BME280;39583;54.682;30.662;2023-01-28T13:25:21;100157.50;;;1.50;95.63
53689;BME280;39583;54.682;30.662;2023-01-28T13:27:57;100160.84;;;1.52;95.83
53689;BME280;39583;54.682;30.662;2023-01-28T13:30:29;100161.84;;;1.41;95.39
53689;BME280;39583;54.682;30.662;2023-01-28T13:33:04;100162.44;;;1.35;95.92
53689;BME280;39583;54.682;30.662;2023-01-28T13:38:07;100157.81;;;1.28;95.81
53689;BME280;39583;54.682;30.662;2023-01-28T13:40:33;100171.78;;;1.30;96.05
53689;BME280;39583;54.682;30.662;2023-01-28T13:43:34;100167.34;;;1.30;96.21
53689;BME280;39583;54.682;30.662;2023-01-28T13:46:09;100176.00;;;1.23;95.82
53689;BME280;39583;54.682;30.662;2023-01-28T13:48:48;100174.19;;;1.13;96.11
53689;BME280;39583;54.682;30.662;2023-01-28T13:51:31;100166.38;;;1.12;96.01
53689;BME280;39583;54.682;30.662;2023-01-28T13:54:25;100162.34;;;1.08;96.26
53689;BME280;39583;54.682;30.662;2023-01-28T13:57:02;100164.44;;;1.04;96.39
53689;BME280;39583;54.682;30.662;2023-01-28T14:05:24;100158.47;;;0.83;96.30
53689;BME280;39583;54.682;30.662;2023-01-28T14:11:04;100133.75;;;0.73;96.41
53689;BME280;39583;54.682;30.662;2023-01-28T14:18:59;100138.22;;;0.63;96.14
53689;BME280;39583;54.682;30.662;2023-01-28T14:21:27;100138.94;;;0.55;95.74
53689;BME280;39583;54.682;30.662;2023-01-28T14:23:57;100133.06;;;0.51;96.26
53689;BME280;39583;54.682;30.662;2023-01-28T14:26:41;100142.13;;;0.49;96.08
53689;BME280;39583;54.682;30.662;2023-01-28T14:31:54;100135.59;;;0.43;96.48
53689;BME280;39583;54.682;30.662;2023-01-28T14:34:28;100116.59;;;0.28;96.48
53689;BME280;39583;54.682;30.662;2023-01-28T14:37:11;100130.28;;;0.43;97.21
53689;BME280;39583;54.682;30.662;2023-01-28T14:39:52;100131.13;;;0.44;97.34
53689;BME280;39583;54.682;30.662;2023-01-28T14:42:25;100128.75;;;0.41;97.33
53689;BME280;39583;54.682;30.662;2023-01-28T14:51:30;100129.31;;;0.44;97.83
53689;BME280;39583;54.682;30.662;2023-01-28T14:57:05;100130.81;;;0.37;97.23
53689;BME280;39583;54.682;30.662;2023-01-28T14:59:39;100127.75;;;0.32;97.65
53689;BME280;39583;54.682;30.662;2023-01-28T15:02:22;100123.44;;;0.31;97.69
53689;BME280;39583;54.682;30.662;2023-01-28T15:04:50;100120.25;;;0.27;97.63
53689;BME280;39583;54.682;30.662;2023-01-28T15:07:22;100120.50;;;0.24;98.16
53689;BME280;39583;54.682;30.662;2023-01-28T15:12:41;100118.81;;;0.23;98.14
53689;BME280;39583;54.682;30.662;2023-01-28T15:17:35;100115.44;;;0.12;97.92
53689;BME280;39583;54.682;30.662;2023-01-28T15:20:02;100111.97;;;0.02;97.34
53689;BME280;39583;54.682;30.662;2023-01-28T15:22:28;100111.09;;;-0.09;97.52
53689;BME280;39583;54.682;30.662;2023-01-28T15:24:54;100114.28;;;-0.15;97.35
53689;BME280;39583;54.682;30.662;2023-01-28T15:27:26;100111.22;;;-0.20;97.66
53689;BME280;39583;54.682;30.662;2023-01-28T15:29:55;100109.13;;;-0.26;97.17
53689;BME280;39583;54.682;30.662;2023-01-28T15:32:29;100106.84;;;-0.31;97.27
53689;BME280;39583;54.682;30.662;2023-01-28T15:34:59;100107.84;;;-0.32;97.38
53689;BME280;39583;54.682;30.662;2023-01-28T15:37:26;100109.78;;;-0.34;97.66
53689;BME280;39583;54.682;30.662;2023-01-28T15:40:03;100101.00;;;-0.34;97.68
53689;BME280;39583;54.682;30.662;2023-01-28T15:42:33;100104.34;;;-0.32;98.12
53689;BME280;39583;54.682;30.662;2023-01-28T15:44:59;100099.19;;;-0.34;98.17
53689;BME280;39583;54.682;30.662;2023-01-28T15:47:30;100098.09;;;-0.31;98.36
53689;BME280;39583;54.682;30.662;2023-01-28T15:50:01;100097.56;;;-0.25;98.91
53689;BME280;39583;54.682;30.662;2023-01-28T15:52:39;100099.66;;;-0.19;98.87
53689;BME280;39583;54.682;30.662;2023-01-28T15:55:07;100079.28;;;-0.28;98.99
53689;BME280;39583;54.682;30.662;2023-01-28T15:57:53;100089.47;;;-0.14;99.08
53689;BME280;39583;54.682;30.662;2023-01-28T16:00:20;100091.03;;;-0.11;99.03
53689;BME280;39583;54.682;30.662;2023-01-28T16:02:53;100081.81;;;-0.17;98.91
53689;BME280;39583;54.682;30.662;2023-01-28T16:05:27;100083.25;;;-0.13;98.97
53689;BME280;39583;54.682;30.662;2023-01-28T16:07:55;100081.53;;;-0.14;98.78
53689;BME280;39583;54.682;30.662;2023-01-28T16:10:27;100075.69;;;-0.17;98.45
53689;BME280;39583;54.682;30.662;2023-01-28T16:13:04;100078.63;;;-0.20;98.21
53689;BME280;39583;54.682;30.662;2023-01-28T16:15:33;100080.97;;;-0.17;98.46
53689;BME280;39583;54.682;30.662;2023-01-28T16:17:59;100076.53;;;-0.17;98.25
53689;BME280;39583;54.682;30.662;2023-01-28T16:20:27;100080.72;;;-0.14;98.41
53689;BME280;39583;54.682;30.662;2023-01-28T16:22:57;100081.44;;;-0.12;98.60
53689;BME280;39583;54.682;30.662;2023-01-28T16:25:30;100076.69;;;-0.09;98.81
53689;BME280;39583;54.682;30.662;2023-01-28T16:27:58;100085.47;;;-0.08;98.33
53689;BME280;39583;54.682;30.662;2023-01-28T16:30:26;100084.19;;;-0.14;98.39
53689;BME280;39583;54.682;30.662;2023-01-28T16:32:52;100086.72;;;-0.12;98.13
53689;BME280;39583;54.682;30.662;2023-01-28T16:35:25;100083.50;;;-0.16;97.78
53689;BME280;39583;54.682;30.662;2023-01-28T16:37:52;100084.88;;;-0.21;97.62
53689;BME280;39583;54.682;30.662;2023-01-28T16:40:20;100081.09;;;-0.28;97.43
53689;BME280;39583;54.682;30.662;2023-01-28T16:42:47;100076.75;;;-0.39;97.35
53689;BME280;39583;54.682;30.662;2023-01-28T16:45:16;100083.84;;;-0.40;97.51
53689;BME280;39583;54.682;30.662;2023-01-28T16:47:42;100082.16;;;-0.41;97.62
53689;BME280;39583;54.682;30.662;2023-01-28T16:50:12;100075.22;;;-0.42;97.15
53689;BME280;39583;54.682;30.662;2023-01-28T16:52:40;100080.50;;;-0.42;97.71
53689;BME280;39583;54.682;30.662;2023-01-28T16:55:14;100056.78;;;-0.53;97.64
53689;BME280;39583;54.682;30.662;2023-01-28T16:57:41;100075.34;;;-0.43;97.68
53689;BME280;39583;54.682;30.662;2023-01-28T17:00:15;100073.16;;;-0.38;97.56
53689;BME280;39583;54.682;30.662;2023-01-28T17:02:44;100072.03;;;-0.36;97.76
53689;BME280;39583;54.682;30.662;2023-01-28T17:05:11;100067.59;;;-0.35;97.81
53689;BME280;39583;54.682;30.662;2023-01-28T17:07:37;100071.34;;;-0.28;97.57
53689;BME280;39583;54.682;30.662;2023-01-28T17:10:04;100074.56;;;-0.24;97.93
53689;BME280;39583;54.682;30.662;2023-01-28T17:12:31;100070.81;;;-0.22;97.39
53689;BME280;39583;54.682;30.662;2023-01-28T17:14:57;100071.66;;;-0.21;97.64
53689;BME280;39583;54.682;30.662;2023-01-28T17:17:25;100064.69;;;-0.22;97.06
53689;BME280;39583;54.682;30.662;2023-01-28T17:19:51;100069.44;;;-0.26;97.22
53689;BME280;39583;54.682;30.662;2023-01-28T17:22:18;100064.13;;;-0.26;96.96
53689;BME280;39583;54.682;30.662;2023-01-28T17:24:44;100063.41;;;-0.28;96.83
53689;BME280;39583;54.682;30.662;2023-01-28T17:27:11;100057.97;;;-0.36;96.87
53689;BME280;39583;54.682;30.662;2023-01-28T17:29:37;100066.34;;;-0.31;96.84
53689;BME280;39583;54.682;30.662;2023-01-28T17:32:04;100058.53;;;-0.33;96.83
53689;BME280;39583;54.682;30.662;2023-01-28T17:34:34;100060.34;;;-0.33;97.10
53689;BME280;39583;54.682;30.662;2023-01-28T17:37:03;100063.97;;;-0.34;96.60
53689;BME280;39583;54.682;30.662;2023-01-28T17:39:29;100057.69;;;-0.33;96.47
53689;BME280;39583;54.682;30.662;2023-01-28T17:41:56;100057.00;;;-0.35;96.91
53689;BME280;39583;54.682;30.662;2023-01-28T17:44:22;100068.00;;;-0.30;96.76
53689;BME280;39583;54.682;30.662;2023-01-28T17:46:48;100055.19;;;-0.35;96.61
53689;BME280;39583;54.682;30.662;2023-01-28T17:49:14;100068.28;;;-0.33;96.36
53689;BME280;39583;54.682;30.662;2023-01-28T17:51:40;100040.41;;;-0.47;96.34
53689;BME280;39583;54.682;30.662;2023-01-28T17:54:06;100058.66;;;-0.34;96.53
53689;BME280;39583;54.682;30.662;2023-01-28T17:56:33;100049.63;;;-0.32;96.51
53689;BME280;39583;54.682;30.662;2023-01-28T17:59:01;100048.50;;;-0.29;96.33
53689;BME280;39583;54.682;30.662;2023-01-28T18:01:29;100052.69;;;-0.36;96.05
53689;BME280;39583;54.682;30.662;2023-01-28T18:03:56;100052.38;;;-0.43;95.65
53689;BME280;39583;54.682;30.662;2023-01-28T18:06:23;100047.78;;;-0.50;95.96
53689;BME280;39583;54.682;30.662;2023-01-28T18:08:49;100028.06;;;-0.67;95.52
53689;BME280;39583;54.682;30.662;2023-01-28T18:11:18;100059.97;;;-0.59;96.00
53689;BME280;39583;54.682;30.662;2023-01-28T18:13:44;100055.66;;;-0.60;96.15
53689;BME280;39583;54.682;30.662;2023-01-28T18:16:14;100057.63;;;-0.62;96.52
53689;BME280;39583;54.682;30.662;2023-01-28T18:18:41;100054.84;;;-0.61;96.58
53689;BME280;39583;54.682;30.662;2023-01-28T18:21:16;100049.25;;;-0.57;97.06
53689;BME280;39583;54.682;30.662;2023-01-28T18:23:43;100049.69;;;-0.52;97.00
53689;BME280;39583;54.682;30.662;2023-01-28T18:26:09;100055.00;;;-0.43;97.43
53689;BME280;39583;54.682;30.662;2023-01-28T18:28:35;100052.41;;;-0.33;97.89
53689;BME280;39583;54.682;30.662;2023-01-28T18:31:06;100040.00;;;-0.33;97.78
53689;BME280;39583;54.682;30.662;2023-01-28T18:33:32;100035.97;;;-0.27;97.74
53689;BME280;39583;54.682;30.662;2023-01-28T18:35:59;100052.16;;;-0.20;97.76
53689;BME280;39583;54.682;30.662;2023-01-28T18:38:26;100056.19;;;-0.16;97.68
53689;BME280;39583;54.682;30.662;2023-01-28T18:40:55;100058.28;;;-0.20;97.06
53689;BME280;39583;54.682;30.662;2023-01-28T18:43:21;100061.47;;;-0.16;97.14
53689;BME280;39583;54.682;30.662;2023-01-28T18:45:47;100047.28;;;-0.15;97.35
53689;BME280;39583;54.682;30.662;2023-01-28T18:48:17;100055.91;;;-0.13;97.15
53689;BME280;39583;54.682;30.662;2023-01-28T18:50:51;100051.47;;;-0.13;97.16
53689;BME280;39583;54.682;30.662;2023-01-28T18:53:18;100045.91;;;-0.10;97.12
53689;BME280;39583;54.682;30.662;2023-01-28T18:55:45;100051.63;;;-0.05;97.51
